sensor_id;sensor_type;location;lat;lon;timestamp;P1;durP1;ratioP1;P2;durP2;ratioP2
69736;SDS011;64476;55.004;73.342;2023-07-31T00:00:49;51.33;;;15.50;;
69736;SDS011;64476;55.004;73.342;2023-07-31T00:03:51;59.80;;;15.35;;
69736;SDS011;64476;55.004;73.342;2023-07-31T00:06:52;40.03;;;15.40;;
69736;SDS011;64476;55.004;73.342;2023-07-31T00:09:54;42.53;;;14.68;;
69736;SDS011;64476;55.004;73.342;2023-07-31T00:12:57;26.10;;;13.60;;
69736;SDS011;64476;55.004;73.342;2023-07-31T00:15:59;26.38;;;14.25;;
69736;SDS011;64476;55.004;73.342;2023-07-31T00:19:01;28.58;;;14.32;;
69736;SDS011;64476;55.004;73.342;2023-07-31T00:22:03;42.47;;;15.02;;
69736;SDS011;64476;55.004;73.342;2023-07-31T00:25:05;36.15;;;14.05;;
69736;SDS011;64476;55.004;73.342;2023-07-31T00:28:07;33.33;;;12.90;;
69736;SDS011;64476;55.004;73.342;2023-07-31T00:31:09;18.52;;;13.98;;
69736;SDS011;64476;55.004;73.342;2023-07-31T00:34:10;26.40;;;15.63;;
69736;SDS011;64476;55.004;73.342;2023-07-31T00:37:12;22.08;;;16.05;;
69736;SDS011;64476;55.004;73.342;2023-07-31T00:40:45;32.78;;;15.25;;
69736;SDS011;64476;55.004;73.342;2023-07-31T00:43:47;22.95;;;15.23;;
69736;SDS011;64476;55.004;73.342;2023-07-31T00:46:51;24.53;;;14.93;;
69736;SDS011;64476;55.004;73.342;2023-07-31T00:50:26;22.30;;;15.02;;
69736;SDS011;64476;55.004;73.342;2023-07-31T00:54:00;31.97;;;14.73;;
69736;SDS011;64476;55.004;73.342;2023-07-31T00:57:04;30.73;;;16.73;;
69736;SDS011;64476;55.004;73.342;2023-07-31T01:00:08;25.45;;;15.57;;
69736;SDS011;64476;55.004;73.342;2023-07-31T01:03:11;23.95;;;15.77;;
69736;SDS011;64476;55.004;73.342;2023-07-31T01:06:15;19.60;;;13.88;;
69736;SDS011;64476;55.004;73.342;2023-07-31T01:12:51;29.02;;;14.35;;
69736;SDS011;64476;55.004;73.342;2023-07-31T01:15:55;30.35;;;15.07;;
69736;SDS011;64476;55.004;73.342;2023-07-31T01:18:57;28.38;;;13.80;;
69736;SDS011;64476;55.004;73.342;2023-07-31T01:22:12;34.40;;;15.30;;
69736;SDS011;64476;55.004;73.342;2023-07-31T01:25:32;31.53;;;14.60;;
69736;SDS011;64476;55.004;73.342;2023-07-31T01:32:14;25.55;;;13.95;;
69736;SDS011;64476;55.004;73.342;2023-07-31T01:38:57;22.90;;;14.65;;
69736;SDS011;64476;55.004;73.342;2023-07-31T01:42:28;30.83;;;14.60;;
69736;SDS011;64476;55.004;73.342;2023-07-31T01:45:30;33.67;;;13.95;;
69736;SDS011;64476;55.004;73.342;2023-07-31T01:48:34;47.03;;;16.20;;
69736;SDS011;64476;55.004;73.342;2023-07-31T01:51:37;31.08;;;16.08;;
69736;SDS011;64476;55.004;73.342;2023-07-31T01:54:47;30.60;;;14.46;;
69736;SDS011;64476;55.004;73.342;2023-07-31T01:57:49;23.65;;;14.98;;
69736;SDS011;64476;55.004;73.342;2023-07-31T02:00:51;27.20;;;12.98;;
69736;SDS011;64476;55.004;73.342;2023-07-31T02:03:53;41.38;;;15.45;;
69736;SDS011;64476;55.004;73.342;2023-07-31T02:06:58;26.03;;;14.17;;
69736;SDS011;64476;55.004;73.342;2023-07-31T02:13:34;41.30;;;15.85;;
69736;SDS011;64476;55.004;73.342;2023-07-31T02:16:40;29.27;;;13.67;;
69736;SDS011;64476;55.004;73.342;2023-07-31T02:19:48;34.53;;;14.32;;
69736;SDS011;64476;55.004;73.342;2023-07-31T02:22:50;42.03;;;14.05;;
69736;SDS011;64476;55.004;73.342;2023-07-31T02:25:51;40.80;;;16.98;;
69736;SDS011;64476;55.004;73.342;2023-07-31T02:28:55;52.75;;;16.55;;
69736;SDS011;64476;55.004;73.342;2023-07-31T02:31:57;33.00;;;16.63;;
69736;SDS011;64476;55.004;73.342;2023-07-31T02:34:59;25.03;;;14.67;;
69736;SDS011;64476;55.004;73.342;2023-07-31T02:41:34;35.70;;;14.97;;
69736;SDS011;64476;55.004;73.342;2023-07-31T02:44:36;43.15;;;14.57;;
69736;SDS011;64476;55.004;73.342;2023-07-31T02:47:38;54.25;;;15.70;;
69736;SDS011;64476;55.004;73.342;2023-07-31T02:50:40;51.80;;;14.80;;
69736;SDS011;64476;55.004;73.342;2023-07-31T02:53:41;51.65;;;14.95;;
69736;SDS011;64476;55.004;73.342;2023-07-31T02:56:43;57.00;;;15.77;;
69736;SDS011;64476;55.004;73.342;2023-07-31T02:59:47;53.15;;;16.13;;
69736;SDS011;64476;55.004;73.342;2023-07-31T03:02:50;69.13;;;17.13;;
69736;SDS011;64476;55.004;73.342;2023-07-31T03:05:51;59.22;;;16.13;;
69736;SDS011;64476;55.004;73.342;2023-07-31T03:08:54;59.05;;;20.45;;
69736;SDS011;64476;55.004;73.342;2023-07-31T03:12:27;57.60;;;18.60;;
69736;SDS011;64476;55.004;73.342;2023-07-31T03:15:29;54.50;;;17.48;;
69736;SDS011;64476;55.004;73.342;2023-07-31T03:18:31;78.50;;;17.55;;
69736;SDS011;64476;55.004;73.342;2023-07-31T03:21:32;67.43;;;16.95;;
69736;SDS011;64476;55.004;73.342;2023-07-31T03:24:34;67.70;;;17.40;;
69736;SDS011;64476;55.004;73.342;2023-07-31T03:27:36;65.67;;;16.67;;
69736;SDS011;64476;55.004;73.342;2023-07-31T03:34:12;80.55;;;19.13;;
69736;SDS011;64476;55.004;73.342;2023-07-31T03:37:56;66.97;;;16.73;;
69736;SDS011;64476;55.004;73.342;2023-07-31T03:40:58;48.42;;;15.43;;
69736;SDS011;64476;55.004;73.342;2023-07-31T03:44:01;29.13;;;12.47;;
69736;SDS011;64476;55.004;73.342;2023-07-31T03:47:05;29.02;;;9.15;;
69736;SDS011;64476;55.004;73.342;2023-07-31T03:50:14;13.13;;;7.18;;
69736;SDS011;64476;55.004;73.342;2023-07-31T03:53:16;19.00;;;7.03;;
69736;SDS011;64476;55.004;73.342;2023-07-31T03:56:17;22.45;;;9.73;;
69736;SDS011;64476;55.004;73.342;2023-07-31T03:59:19;20.33;;;9.63;;
69736;SDS011;64476;55.004;73.342;2023-07-31T04:02:20;26.15;;;7.60;;
69736;SDS011;64476;55.004;73.342;2023-07-31T04:05:22;25.85;;;9.65;;
69736;SDS011;64476;55.004;73.342;2023-07-31T04:08:24;26.80;;;10.30;;
69736;SDS011;64476;55.004;73.342;2023-07-31T04:11:26;25.30;;;8.07;;
69736;SDS011;64476;55.004;73.342;2023-07-31T04:14:27;23.40;;;8.93;;
69736;SDS011;64476;55.004;73.342;2023-07-31T04:17:29;28.40;;;7.88;;
69736;SDS011;64476;55.004;73.342;2023-07-31T04:20:32;18.92;;;7.50;;
69736;SDS011;64476;55.004;73.342;2023-07-31T04:23:34;15.50;;;6.68;;
69736;SDS011;64476;55.004;73.342;2023-07-31T04:26:36;17.03;;;6.60;;
69736;SDS011;64476;55.004;73.342;2023-07-31T04:33:11;26.27;;;8.45;;
69736;SDS011;64476;55.004;73.342;2023-07-31T04:36:13;19.17;;;7.23;;
69736;SDS011;64476;55.004;73.342;2023-07-31T04:39:47;26.88;;;6.88;;
69736;SDS011;64476;55.004;73.342;2023-07-31T04:42:49;17.23;;;8.43;;
69736;SDS011;64476;55.004;73.342;2023-07-31T04:45:51;23.05;;;6.93;;
69736;SDS011;64476;55.004;73.342;2023-07-31T04:52:00;18.45;;;6.18;;
69736;SDS011;64476;55.004;73.342;2023-07-31T04:55:02;10.48;;;5.28;;
69736;SDS011;64476;55.004;73.342;2023-07-31T04:58:06;19.15;;;5.65;;
69736;SDS011;64476;55.004;73.342;2023-07-31T05:01:08;15.75;;;6.47;;
69736;SDS011;64476;55.004;73.342;2023-07-31T05:04:10;22.10;;;5.70;;
69736;SDS011;64476;55.004;73.342;2023-07-31T05:07:13;73.65;;;9.05;;
69736;SDS011;64476;55.004;73.342;2023-07-31T05:10:15;623.38;;;37.00;;
69736;SDS011;64476;55.004;73.342;2023-07-31T05:13:17;27.30;;;6.75;;
69736;SDS011;64476;55.004;73.342;2023-07-31T05:16:18;25.83;;;7.95;;
69736;SDS011;64476;55.004;73.342;2023-07-31T05:19:24;14.60;;;5.03;;
69736;SDS011;64476;55.004;73.342;2023-07-31T05:22:25;161.50;;;12.60;;
69736;SDS011;64476;55.004;73.342;2023-07-31T05:25:28;17.00;;;5.80;;
69736;SDS011;64476;55.004;73.342;2023-07-31T05:28:29;14.93;;;4.50;;
69736;SDS011;64476;55.004;73.342;2023-07-31T05:31:31;13.90;;;4.63;;
69736;SDS011;64476;55.004;73.342;2023-07-31T05:34:33;9.00;;;3.90;;
69736;SDS011;64476;55.004;73.342;2023-07-31T05:37:35;14.55;;;4.40;;
69736;SDS011;64476;55.004;73.342;2023-07-31T05:40:37;34.40;;;4.65;;
69736;SDS011;64476;55.004;73.342;2023-07-31T05:43:38;14.83;;;4.43;;
69736;SDS011;64476;55.004;73.342;2023-07-31T05:46:40;23.35;;;7.10;;
69736;SDS011;64476;55.004;73.342;2023-07-31T05:49:48;13.94;;;5.98;;
69736;SDS011;64476;55.004;73.342;2023-07-31T05:52:50;10.85;;;4.68;;
69736;SDS011;64476;55.004;73.342;2023-07-31T05:55:54;3.83;;;3.50;;
69736;SDS011;64476;55.004;73.342;2023-07-31T05:59:01;9.77;;;4.13;;
69736;SDS011;64476;55.004;73.342;2023-07-31T06:02:03;11.40;;;4.80;;
69736;SDS011;64476;55.004;73.342;2023-07-31T06:05:05;7.13;;;5.05;;
69736;SDS011;64476;55.004;73.342;2023-07-31T06:08:07;9.88;;;4.97;;
69736;SDS011;64476;55.004;73.342;2023-07-31T06:11:09;15.68;;;4.95;;
69736;SDS011;64476;55.004;73.342;2023-07-31T06:14:11;12.45;;;4.82;;
69736;SDS011;64476;55.004;73.342;2023-07-31T06:17:13;13.03;;;4.93;;
69736;SDS011;64476;55.004;73.342;2023-07-31T06:20:14;6.18;;;3.22;;
69736;SDS011;64476;55.004;73.342;2023-07-31T06:23:52;17.75;;;4.70;;
69736;SDS011;64476;55.004;73.342;2023-07-31T06:30:28;20.98;;;5.03;;
69736;SDS011;64476;55.004;73.342;2023-07-31T06:36:40;5.40;;;4.10;;
69736;SDS011;64476;55.004;73.342;2023-07-31T06:39:47;8.12;;;4.28;;
69736;SDS011;64476;55.004;73.342;2023-07-31T06:42:49;9.18;;;3.92;;
69736;SDS011;64476;55.004;73.342;2023-07-31T06:45:51;20.08;;;4.70;;
69736;SDS011;64476;55.004;73.342;2023-07-31T06:48:53;16.08;;;4.90;;
69736;SDS011;64476;55.004;73.342;2023-07-31T06:51:55;30.35;;;6.47;;
69736;SDS011;64476;55.004;73.342;2023-07-31T06:55:01;18.57;;;4.23;;
69736;SDS011;64476;55.004;73.342;2023-07-31T06:58:09;6.07;;;4.45;;
69736;SDS011;64476;55.004;73.342;2023-07-31T07:01:11;19.02;;;5.07;;
69736;SDS011;64476;55.004;73.342;2023-07-31T07:04:13;57.80;;;9.10;;
69736;SDS011;64476;55.004;73.342;2023-07-31T07:07:15;24.08;;;6.93;;
69736;SDS011;64476;55.004;73.342;2023-07-31T07:10:17;30.38;;;6.53;;
69736;SDS011;64476;55.004;73.342;2023-07-31T07:13:20;16.92;;;7.75;;
69736;SDS011;64476;55.004;73.342;2023-07-31T07:16:23;24.27;;;6.25;;
69736;SDS011;64476;55.004;73.342;2023-07-31T07:19:25;11.98;;;5.40;;
69736;SDS011;64476;55.004;73.342;2023-07-31T07:22:26;16.92;;;5.20;;
69736;SDS011;64476;55.004;73.342;2023-07-31T07:25:28;17.38;;;5.78;;
69736;SDS011;64476;55.004;73.342;2023-07-31T07:28:30;36.42;;;5.97;;
69736;SDS011;64476;55.004;73.342;2023-07-31T07:31:32;10.80;;;6.00;;
69736;SDS011;64476;55.004;73.342;2023-07-31T07:34:33;34.53;;;8.30;;
69736;SDS011;64476;55.004;73.342;2023-07-31T07:37:35;32.05;;;8.52;;
69736;SDS011;64476;55.004;73.342;2023-07-31T07:41:09;35.53;;;11.18;;
69736;SDS011;64476;55.004;73.342;2023-07-31T07:44:14;29.55;;;10.82;;
69736;SDS011;64476;55.004;73.342;2023-07-31T07:47:16;37.60;;;10.40;;
69736;SDS011;64476;55.004;73.342;2023-07-31T07:50:18;31.75;;;10.40;;
69736;SDS011;64476;55.004;73.342;2023-07-31T07:53:20;32.05;;;10.60;;
69736;SDS011;64476;55.004;73.342;2023-07-31T07:56:56;56.05;;;12.85;;
69736;SDS011;64476;55.004;73.342;2023-07-31T08:00:31;39.92;;;10.20;;
69736;SDS011;64476;55.004;73.342;2023-07-31T08:03:37;29.13;;;9.45;;
69736;SDS011;64476;55.004;73.342;2023-07-31T08:06:42;29.70;;;8.50;;
69736;SDS011;64476;55.004;73.342;2023-07-31T08:09:47;35.90;;;7.57;;
69736;SDS011;64476;55.004;73.342;2023-07-31T08:12:50;18.00;;;5.80;;
69736;SDS011;64476;55.004;73.342;2023-07-31T08:15:52;18.33;;;5.83;;
69736;SDS011;64476;55.004;73.342;2023-07-31T08:18:53;17.58;;;5.60;;
69736;SDS011;64476;55.004;73.342;2023-07-31T08:21:59;20.20;;;8.20;;
69736;SDS011;64476;55.004;73.342;2023-07-31T08:25:00;28.17;;;6.32;;
69736;SDS011;64476;55.004;73.342;2023-07-31T08:28:05;21.08;;;5.90;;
69736;SDS011;64476;55.004;73.342;2023-07-31T08:31:07;21.20;;;6.28;;
69736;SDS011;64476;55.004;73.342;2023-07-31T08:34:09;10.90;;;5.65;;
69736;SDS011;64476;55.004;73.342;2023-07-31T08:37:10;22.55;;;6.20;;
69736;SDS011;64476;55.004;73.342;2023-07-31T08:40:44;21.17;;;6.47;;
69736;SDS011;64476;55.004;73.342;2023-07-31T08:43:51;13.75;;;5.82;;
69736;SDS011;64476;55.004;73.342;2023-07-31T08:47:27;28.88;;;7.18;;
69736;SDS011;64476;55.004;73.342;2023-07-31T08:51:01;17.05;;;6.97;;
69736;SDS011;64476;55.004;73.342;2023-07-31T08:54:03;25.30;;;6.75;;
69736;SDS011;64476;55.004;73.342;2023-07-31T08:57:11;34.55;;;7.18;;
69736;SDS011;64476;55.004;73.342;2023-07-31T09:00:14;23.17;;;6.63;;
69736;SDS011;64476;55.004;73.342;2023-07-31T09:03:17;19.88;;;7.30;;
69736;SDS011;64476;55.004;73.342;2023-07-31T09:06:19;20.15;;;6.88;;
69736;SDS011;64476;55.004;73.342;2023-07-31T09:09:24;23.23;;;6.85;;
69736;SDS011;64476;55.004;73.342;2023-07-31T09:12:25;20.08;;;5.88;;
69736;SDS011;64476;55.004;73.342;2023-07-31T09:15:27;32.95;;;6.75;;
69736;SDS011;64476;55.004;73.342;2023-07-31T09:18:30;19.88;;;6.68;;
69736;SDS011;64476;55.004;73.342;2023-07-31T09:22:07;10.50;;;5.63;;
69736;SDS011;64476;55.004;73.342;2023-07-31T09:28:44;14.82;;;6.15;;
69736;SDS011;64476;55.004;73.342;2023-07-31T09:31:46;16.58;;;6.55;;
69736;SDS011;64476;55.004;73.342;2023-07-31T09:34:48;15.73;;;6.20;;
69736;SDS011;64476;55.004;73.342;2023-07-31T09:37:50;12.30;;;5.80;;
69736;SDS011;64476;55.004;73.342;2023-07-31T09:40:53;21.67;;;5.22;;
69736;SDS011;64476;55.004;73.342;2023-07-31T09:43:55;17.40;;;6.03;;
69736;SDS011;64476;55.004;73.342;2023-07-31T09:46:57;12.73;;;5.95;;
69736;SDS011;64476;55.004;73.342;2023-07-31T09:49:59;12.30;;;4.38;;
69736;SDS011;64476;55.004;73.342;2023-07-31T09:53:00;12.98;;;4.40;;
69736;SDS011;64476;55.004;73.342;2023-07-31T09:56:02;10.52;;;3.85;;
69736;SDS011;64476;55.004;73.342;2023-07-31T09:59:05;30.13;;;5.68;;
69736;SDS011;64476;55.004;73.342;2023-07-31T10:02:08;20.08;;;10.68;;
69736;SDS011;64476;55.004;73.342;2023-07-31T10:05:49;15.38;;;5.53;;
69736;SDS011;64476;55.004;73.342;2023-07-31T10:08:52;16.15;;;4.53;;
69736;SDS011;64476;55.004;73.342;2023-07-31T10:12:27;8.80;;;4.20;;
69736;SDS011;64476;55.004;73.342;2023-07-31T10:22:09;18.48;;;4.82;;
69736;SDS011;64476;55.004;73.342;2023-07-31T10:28:14;17.58;;;5.57;;
69736;SDS011;64476;55.004;73.342;2023-07-31T10:31:19;25.07;;;6.10;;
69736;SDS011;64476;55.004;73.342;2023-07-31T10:34:22;16.05;;;5.82;;
69736;SDS011;64476;55.004;73.342;2023-07-31T10:40:29;16.63;;;5.65;;
69736;SDS011;64476;55.004;73.342;2023-07-31T10:43:31;24.73;;;5.18;;
69736;SDS011;64476;55.004;73.342;2023-07-31T10:46:34;11.70;;;5.05;;
69736;SDS011;64476;55.004;73.342;2023-07-31T10:49:36;12.70;;;4.38;;
69736;SDS011;64476;55.004;73.342;2023-07-31T10:52:40;13.95;;;4.78;;
69736;SDS011;64476;55.004;73.342;2023-07-31T10:55:45;16.65;;;4.90;;
69736;SDS011;64476;55.004;73.342;2023-07-31T11:07:10;8.90;;;3.53;;
69736;SDS011;64476;55.004;73.342;2023-07-31T11:10:43;16.08;;;3.90;;
69736;SDS011;64476;55.004;73.342;2023-07-31T11:17:05;11.07;;;2.93;;
69736;SDS011;64476;55.004;73.342;2023-07-31T11:20:12;7.37;;;2.97;;
69736;SDS011;64476;55.004;73.342;2023-07-31T11:23:15;13.70;;;3.22;;
69736;SDS011;64476;55.004;73.342;2023-07-31T11:26:18;12.25;;;3.55;;
69736;SDS011;64476;55.004;73.342;2023-07-31T11:29:21;14.63;;;4.20;;
69736;SDS011;64476;55.004;73.342;2023-07-31T11:32:30;11.82;;;4.90;;
69736;SDS011;64476;55.004;73.342;2023-07-31T11:35:41;16.37;;;5.27;;
69736;SDS011;64476;55.004;73.342;2023-07-31T11:38:50;11.88;;;4.10;;
69736;SDS011;64476;55.004;73.342;2023-07-31T11:42:26;16.70;;;5.10;;
69736;SDS011;64476;55.004;73.342;2023-07-31T11:45:27;31.92;;;5.88;;
69736;SDS011;64476;55.004;73.342;2023-07-31T11:48:31;18.85;;;4.72;;
69736;SDS011;64476;55.004;73.342;2023-07-31T11:55:12;10.27;;;3.90;;
69736;SDS011;64476;55.004;73.342;2023-07-31T11:58:16;19.30;;;5.07;;
69736;SDS011;64476;55.004;73.342;2023-07-31T12:01:22;18.47;;;5.23;;
69736;SDS011;64476;55.004;73.342;2023-07-31T12:04:26;15.35;;;3.80;;
69736;SDS011;64476;55.004;73.342;2023-07-31T12:07:27;20.55;;;5.43;;
69736;SDS011;64476;55.004;73.342;2023-07-31T12:10:47;14.05;;;4.28;;
69736;SDS011;64476;55.004;73.342;2023-07-31T12:13:54;17.58;;;4.20;;
69736;SDS011;64476;55.004;73.342;2023-07-31T12:17:00;9.73;;;4.30;;
69736;SDS011;64476;55.004;73.342;2023-07-31T12:20:05;12.70;;;4.05;;
69736;SDS011;64476;55.004;73.342;2023-07-31T12:23:12;12.95;;;3.38;;
69736;SDS011;64476;55.004;73.342;2023-07-31T12:26:33;20.58;;;10.30;;
69736;SDS011;64476;55.004;73.342;2023-07-31T12:29:36;18.50;;;8.95;;
69736;SDS011;64476;55.004;73.342;2023-07-31T12:32:38;16.17;;;4.80;;
69736;SDS011;64476;55.004;73.342;2023-07-31T12:39:15;18.00;;;4.30;;
69736;SDS011;64476;55.004;73.342;2023-07-31T12:45:19;11.35;;;4.53;;
69736;SDS011;64476;55.004;73.342;2023-07-31T12:48:53;5.90;;;3.60;;
69736;SDS011;64476;55.004;73.342;2023-07-31T12:51:55;6.70;;;3.60;;
69736;SDS011;64476;55.004;73.342;2023-07-31T12:54:56;4.28;;;3.42;;
69736;SDS011;64476;55.004;73.342;2023-07-31T12:57:58;8.20;;;3.65;;
69736;SDS011;64476;55.004;73.342;2023-07-31T13:01:00;13.40;;;4.07;;
69736;SDS011;64476;55.004;73.342;2023-07-31T13:04:08;17.70;;;3.90;;
69736;SDS011;64476;55.004;73.342;2023-07-31T13:07:10;14.03;;;4.17;;
69736;SDS011;64476;55.004;73.342;2023-07-31T13:10:11;23.50;;;3.95;;
69736;SDS011;64476;55.004;73.342;2023-07-31T13:13:13;21.38;;;4.40;;
69736;SDS011;64476;55.004;73.342;2023-07-31T13:16:15;16.27;;;4.37;;
69736;SDS011;64476;55.004;73.342;2023-07-31T13:19:16;16.75;;;5.00;;
69736;SDS011;64476;55.004;73.342;2023-07-31T13:22:18;28.40;;;5.72;;
69736;SDS011;64476;55.004;73.342;2023-07-31T13:25:20;29.98;;;7.07;;
69736;SDS011;64476;55.004;73.342;2023-07-31T13:28:21;46.60;;;8.43;;
69736;SDS011;64476;55.004;73.342;2023-07-31T13:31:23;34.80;;;6.95;;
69736;SDS011;64476;55.004;73.342;2023-07-31T13:34:25;40.65;;;6.90;;
69736;SDS011;64476;55.004;73.342;2023-07-31T13:37:28;27.98;;;7.30;;
69736;SDS011;64476;55.004;73.342;2023-07-31T13:40:30;23.80;;;7.10;;
69736;SDS011;64476;55.004;73.342;2023-07-31T13:43:32;40.05;;;6.93;;
69736;SDS011;64476;55.004;73.342;2023-07-31T13:46:33;18.27;;;7.85;;
69736;SDS011;64476;55.004;73.342;2023-07-31T13:49:35;28.98;;;7.53;;
69736;SDS011;64476;55.004;73.342;2023-07-31T13:52:40;24.15;;;7.88;;
69736;SDS011;64476;55.004;73.342;2023-07-31T13:55:41;36.33;;;6.70;;
69736;SDS011;64476;55.004;73.342;2023-07-31T13:58:46;17.23;;;6.25;;
69736;SDS011;64476;55.004;73.342;2023-07-31T14:01:49;24.55;;;6.40;;
69736;SDS011;64476;55.004;73.342;2023-07-31T14:04:51;11.00;;;7.22;;
69736;SDS011;64476;55.004;73.342;2023-07-31T14:07:53;19.85;;;7.72;;
69736;SDS011;64476;55.004;73.342;2023-07-31T14:10:56;23.83;;;8.02;;
69736;SDS011;64476;55.004;73.342;2023-07-31T14:13:58;22.88;;;9.02;;
69736;SDS011;64476;55.004;73.342;2023-07-31T14:16:59;24.23;;;8.30;;
69736;SDS011;64476;55.004;73.342;2023-07-31T14:20:02;33.88;;;9.02;;
69736;SDS011;64476;55.004;73.342;2023-07-31T14:23:04;28.13;;;10.10;;
69736;SDS011;64476;55.004;73.342;2023-07-31T14:26:06;24.25;;;9.15;;
69736;SDS011;64476;55.004;73.342;2023-07-31T14:33:26;18.58;;;8.00;;
69736;SDS011;64476;55.004;73.342;2023-07-31T14:36:59;22.20;;;8.07;;
69736;SDS011;64476;55.004;73.342;2023-07-31T14:43:35;18.57;;;8.00;;
69736;SDS011;64476;55.004;73.342;2023-07-31T14:46:36;29.33;;;8.35;;
69736;SDS011;64476;55.004;73.342;2023-07-31T14:49:47;26.54;;;9.21;;
69736;SDS011;64476;55.004;73.342;2023-07-31T14:52:49;29.90;;;8.52;;
69736;SDS011;64476;55.004;73.342;2023-07-31T14:55:51;26.23;;;8.57;;
69736;SDS011;64476;55.004;73.342;2023-07-31T14:58:52;26.55;;;8.23;;
69736;SDS011;64476;55.004;73.342;2023-07-31T15:01:54;28.92;;;8.35;;
69736;SDS011;64476;55.004;73.342;2023-07-31T15:04:56;47.57;;;9.57;;
69736;SDS011;64476;55.004;73.342;2023-07-31T15:07:58;27.90;;;8.32;;
69736;SDS011;64476;55.004;73.342;2023-07-31T15:10:59;31.40;;;10.02;;
69736;SDS011;64476;55.004;73.342;2023-07-31T15:14:02;15.73;;;6.20;;
69736;SDS011;64476;55.004;73.342;2023-07-31T15:17:35;12.63;;;5.57;;
69736;SDS011;64476;55.004;73.342;2023-07-31T15:20:40;14.25;;;5.10;;
69736;SDS011;64476;55.004;73.342;2023-07-31T15:23:42;28.98;;;6.47;;
69736;SDS011;64476;55.004;73.342;2023-07-31T15:26:44;31.83;;;6.85;;
69736;SDS011;64476;55.004;73.342;2023-07-31T15:29:49;84.55;;;7.60;;
69736;SDS011;64476;55.004;73.342;2023-07-31T15:32:52;46.10;;;6.63;;
69736;SDS011;64476;55.004;73.342;2023-07-31T15:35:59;10.35;;;5.75;;
69736;SDS011;64476;55.004;73.342;2023-07-31T15:39:01;28.25;;;5.93;;
69736;SDS011;64476;55.004;73.342;2023-07-31T15:42:03;48.05;;;9.10;;
69736;SDS011;64476;55.004;73.342;2023-07-31T15:45:08;35.72;;;11.43;;
69736;SDS011;64476;55.004;73.342;2023-07-31T15:48:11;30.67;;;8.68;;
69736;SDS011;64476;55.004;73.342;2023-07-31T15:51:13;8.40;;;5.68;;
69736;SDS011;64476;55.004;73.342;2023-07-31T15:54:16;11.32;;;6.18;;
69736;SDS011;64476;55.004;73.342;2023-07-31T15:57:17;11.33;;;4.70;;
69736;SDS011;64476;55.004;73.342;2023-07-31T16:00:58;12.57;;;6.47;;
69736;SDS011;64476;55.004;73.342;2023-07-31T16:04:03;20.98;;;6.93;;
69736;SDS011;64476;55.004;73.342;2023-07-31T16:07:05;17.13;;;7.53;;
69736;SDS011;64476;55.004;73.342;2023-07-31T16:10:07;14.20;;;7.38;;
69736;SDS011;64476;55.004;73.342;2023-07-31T16:13:09;16.85;;;8.57;;
69736;SDS011;64476;55.004;73.342;2023-07-31T16:16:11;14.32;;;8.20;;
69736;SDS011;64476;55.004;73.342;2023-07-31T16:19:17;11.00;;;8.70;;
69736;SDS011;64476;55.004;73.342;2023-07-31T16:22:19;12.13;;;7.60;;
69736;SDS011;64476;55.004;73.342;2023-07-31T16:25:21;12.48;;;7.90;;
69736;SDS011;64476;55.004;73.342;2023-07-31T16:28:22;15.35;;;8.52;;
69736;SDS011;64476;55.004;73.342;2023-07-31T16:31:24;14.63;;;8.35;;
69736;SDS011;64476;55.004;73.342;2023-07-31T16:34:26;11.95;;;7.68;;
69736;SDS011;64476;55.004;73.342;2023-07-31T16:37:28;10.43;;;8.30;;
69736;SDS011;64476;55.004;73.342;2023-07-31T16:40:30;12.95;;;8.05;;
69736;SDS011;64476;55.004;73.342;2023-07-31T16:43:37;14.68;;;9.30;;
69736;SDS011;64476;55.004;73.342;2023-07-31T16:46:39;16.05;;;8.77;;
69736;SDS011;64476;55.004;73.342;2023-07-31T16:49:47;20.05;;;8.75;;
69736;SDS011;64476;55.004;73.342;2023-07-31T16:52:49;9.48;;;7.57;;
69736;SDS011;64476;55.004;73.342;2023-07-31T16:55:51;13.02;;;9.00;;
69736;SDS011;64476;55.004;73.342;2023-07-31T16:58:52;10.50;;;8.13;;
69736;SDS011;64476;55.004;73.342;2023-07-31T17:01:56;16.80;;;8.80;;
69736;SDS011;64476;55.004;73.342;2023-07-31T17:04:58;17.35;;;8.55;;
69736;SDS011;64476;55.004;73.342;2023-07-31T17:08:07;14.30;;;8.75;;
69736;SDS011;64476;55.004;73.342;2023-07-31T17:11:10;13.35;;;9.15;;
69736;SDS011;64476;55.004;73.342;2023-07-31T17:14:15;18.95;;;10.10;;
69736;SDS011;64476;55.004;73.342;2023-07-31T17:17:17;13.65;;;10.00;;
69736;SDS011;64476;55.004;73.342;2023-07-31T17:20:18;18.08;;;9.70;;
69736;SDS011;64476;55.004;73.342;2023-07-31T17:23:20;17.95;;;11.45;;
69736;SDS011;64476;55.004;73.342;2023-07-31T17:26:22;14.75;;;11.30;;
69736;SDS011;64476;55.004;73.342;2023-07-31T17:32:31;18.93;;;12.70;;
69736;SDS011;64476;55.004;73.342;2023-07-31T17:39:06;12.90;;;10.40;;
69736;SDS011;64476;55.004;73.342;2023-07-31T17:42:09;15.57;;;9.30;;
69736;SDS011;64476;55.004;73.342;2023-07-31T17:45:10;17.73;;;9.45;;
69736;SDS011;64476;55.004;73.342;2023-07-31T17:48:12;16.52;;;9.77;;
69736;SDS011;64476;55.004;73.342;2023-07-31T17:51:46;12.93;;;9.83;;
69736;SDS011;64476;55.004;73.342;2023-07-31T17:54:51;13.82;;;9.80;;
69736;SDS011;64476;55.004;73.342;2023-07-31T17:57:55;17.95;;;9.75;;
69736;SDS011;64476;55.004;73.342;2023-07-31T18:00:56;17.15;;;9.23;;
69736;SDS011;64476;55.004;73.342;2023-07-31T18:03:58;18.05;;;10.02;;
69736;SDS011;64476;55.004;73.342;2023-07-31T18:07:00;14.43;;;9.77;;
69736;SDS011;64476;55.004;73.342;2023-07-31T18:10:01;13.70;;;11.10;;
69736;SDS011;64476;55.004;73.342;2023-07-31T18:16:39;18.73;;;11.67;;
69736;SDS011;64476;55.004;73.342;2023-07-31T18:19:50;16.37;;;11.72;;
69736;SDS011;64476;55.004;73.342;2023-07-31T18:22:52;26.83;;;11.77;;
69736;SDS011;64476;55.004;73.342;2023-07-31T18:25:55;14.40;;;10.83;;
69736;SDS011;64476;55.004;73.342;2023-07-31T18:28:56;18.90;;;11.57;;
69736;SDS011;64476;55.004;73.342;2023-07-31T18:31:58;15.80;;;12.52;;
69736;SDS011;64476;55.004;73.342;2023-07-31T18:35:00;16.40;;;12.15;;
69736;SDS011;64476;55.004;73.342;2023-07-31T18:38:04;13.57;;;11.90;;
69736;SDS011;64476;55.004;73.342;2023-07-31T18:41:09;15.32;;;11.60;;
69736;SDS011;64476;55.004;73.342;2023-07-31T18:44:12;21.88;;;12.70;;
69736;SDS011;64476;55.004;73.342;2023-07-31T18:47:14;18.88;;;12.77;;
69736;SDS011;64476;55.004;73.342;2023-07-31T18:50:15;20.70;;;13.10;;
69736;SDS011;64476;55.004;73.342;2023-07-31T18:53:17;21.15;;;13.23;;
69736;SDS011;64476;55.004;73.342;2023-07-31T18:56:19;16.27;;;12.43;;
69736;SDS011;64476;55.004;73.342;2023-07-31T18:59:21;24.65;;;11.98;;
69736;SDS011;64476;55.004;73.342;2023-07-31T19:02:22;21.63;;;11.93;;
69736;SDS011;64476;55.004;73.342;2023-07-31T19:05:24;19.70;;;11.75;;
69736;SDS011;64476;55.004;73.342;2023-07-31T19:08:25;17.60;;;12.32;;
69736;SDS011;64476;55.004;73.342;2023-07-31T19:11:27;18.05;;;11.05;;
69736;SDS011;64476;55.004;73.342;2023-07-31T19:14:29;20.75;;;11.38;;
69736;SDS011;64476;55.004;73.342;2023-07-31T19:17:32;15.67;;;9.93;;
69736;SDS011;64476;55.004;73.342;2023-07-31T19:20:34;15.60;;;10.32;;
69736;SDS011;64476;55.004;73.342;2023-07-31T19:23:35;11.98;;;9.45;;
69736;SDS011;64476;55.004;73.342;2023-07-31T19:26:37;17.73;;;8.82;;
69736;SDS011;64476;55.004;73.342;2023-07-31T19:29:47;10.74;;;7.68;;